Time;durP1;ratioP1;P1;durP2;ratioP2;P2;SDS_P1;SDS_P2;PMS_P1;PMS_P2;Temp;Humidity;BMP_temperature;BMP_pressure;BME280_temperature;BME280_humidity;BME280_pressure;Samples;Min_cycle;Max_cycle;Signal;HPM_P1;HPM_P2
2024/03/30 00:02:28;;;;;;;;;;;;;;;16.56;54.83;101013.97;5092269;28;1066;-46
2024/03/30 00:04:54;;;;;;;;;;;;;;;16.42;54.58;101011.72;5097763;28;1093;-47
2024/03/30 00:07:19;;;;;;;;;;;;;;;17.50;53.07;100999.41;5097243;28;1141;-46
2024/03/30 00:09:48;;;;;;;;;;;;;;;17.41;52.59;100999.94;5087254;28;1035;-48
2024/03/30 00:12:14;;;;;;;;;;;;;;;16.83;54.17;101004.72;5097460;28;1909;-50
2024/03/30 00:14:39;;;;;;;;;;;;;;;16.59;54.36;101011.53;5097677;28;1189;-49
2024/03/30 00:17:05;;;;;;;;;;;;;;;16.39;54.77;101004.00;5097488;28;1143;-49
2024/03/30 00:19:30;;;;;;;;;;;;;;;16.51;55.14;101013.94;5097698;28;1173;-48
2024/03/30 00:21:56;;;;;;;;;;;;;;;17.90;51.83;101006.00;5083814;28;913;-47
2024/03/30 00:24:21;;;;;;;;;;;;;;;17.16;53.54;101008.16;5097493;28;1125;-49
2024/03/30 00:26:47;;;;;;;;;;;;;;;16.73;54.19;101005.53;5094649;28;1086;-47
2024/03/30 00:29:13;;;;;;;;;;;;;;;16.45;54.84;101012.28;5086164;28;1027;-49
2024/03/30 00:31:38;;;;;;;;;;;;;;;16.30;54.96;101008.38;5094332;28;1124;-50
2024/03/30 00:34:04;;;;;;;;;;;;;;;17.36;53.41;101001.84;5097224;28;1906;-49
2024/03/30 00:36:29;;;;;;;;;;;;;;;17.64;52.34;101011.50;5096908;28;1452;-45
2024/03/30 00:38:55;;;;;;;;;;;;;;;16.92;53.81;101011.41;5097668;28;1197;-50
2024/03/30 00:41:20;;;;;;;;;;;;;;;16.61;54.27;101014.00;5083068;28;1220;-50
2024/03/30 00:43:46;;;;;;;;;;;;;;;16.46;54.69;101013.94;5096987;28;1042;-46
2024/03/30 00:46:11;;;;;;;;;;;;;;;16.46;55.31;101012.00;5092999;28;1019;-47
2024/03/30 00:48:37;;;;;;;;;;;;;;;17.92;52.04;101012.06;5096896;28;1050;-46
2024/03/30 00:51:02;;;;;;;;;;;;;;;17.26;53.31;101010.91;5096556;28;1035;-48
2024/03/30 00:53:28;;;;;;;;;;;;;;;16.73;54.29;101011.84;5097021;28;1914;-46
2024/03/30 00:55:56;;;;;;;;;;;;;;;16.56;54.39;101006.56;5096790;28;1078;-46
2024/03/30 00:58:22;;;;;;;;;;;;;;;16.36;54.61;101001.78;5087357;28;1102;-48
2024/03/30 01:00:47;;;;;;;;;;;;;;;16.75;54.69;100995.94;5092323;28;1070;-47
2024/03/30 01:03:13;;;;;;;;;;;;;;;18.08;51.36;101002.69;5096303;28;1014;-46
2024/03/30 01:05:38;;;;;;;;;;;;;;;17.12;53.54;101010.63;5096380;28;1038;-48
2024/03/30 01:08:04;;;;;;;;;;;;;;;16.77;54.09;101001.16;5096790;28;1066;-49
2024/03/30 01:10:30;;;;;;;;;;;;;;;16.45;54.76;100998.53;5094931;28;1216;-48
2024/03/30 01:12:55;;;;;;;;;;;;;;;16.31;54.67;100998.19;5096663;28;1968;-47
2024/03/30 01:15:21;;;;;;;;;;;;;;;17.13;54.11;101001.28;5096449;28;1116;-49
2024/03/30 01:17:47;;;;;;;;;;;;;;;17.76;52.17;101006.53;5096820;28;1102;-49
2024/03/30 01:20:12;;;;;;;;;;;;;;;16.92;53.94;101006.72;5080909;28;1133;-48
2024/03/30 01:22:38;;;;;;;;;;;;;;;16.67;54.49;101001.94;5084610;28;1121;-50
2024/03/30 01:25:04;;;;;;;;;;;;;;;16.47;54.51;101010.09;5082913;28;1165;-47
2024/03/30 01:27:29;;;;;;;;;;;;;;;17.53;53.11;101001.59;5096517;28;1110;-50
2024/03/30 01:29:55;;;;;;;;;;;;;;;17.51;52.65;101001.88;5096795;28;1077;-50
2024/03/30 01:32:21;;;;;;;;;;;;;;;16.98;53.67;100999.31;5076239;28;1984;-47
2024/03/30 01:34:46;;;;;;;;;;;;;;;16.63;54.37;100991.75;5091270;28;1142;-47
2024/03/30 01:37:12;;;;;;;;;;;;;;;16.41;54.66;100996.34;5096405;28;1089;-47
2024/03/30 01:39:37;;;;;;;;;;;;;;;16.24;55.01;100993.78;5095807;28;1453;-47
2024/03/30 01:42:03;;;;;;;;;;;;;;;17.12;54.28;101004.31;5096257;28;1086;-49
2024/03/30 01:44:28;;;;;;;;;;;;;;;17.86;51.77;101005.72;5083617;28;1245;-48
2024/03/30 01:46:54;;;;;;;;;;;;;;;16.99;53.86;100998.22;5095947;28;1078;-49
2024/03/30 01:49:20;;;;;;;;;;;;;;;16.68;54.37;101003.59;5096058;28;1113;-46
2024/03/30 01:51:46;;;;;;;;;;;;;;;16.50;54.75;100998.59;5095786;28;1156;-48
2024/03/30 01:54:11;;;;;;;;;;;;;;;16.55;55.21;100996.69;5077983;28;1906;-49
2024/03/30 01:56:37;;;;;;;;;;;;;;;18.01;51.89;100991.16;5075582;28;1131;-46
2024/03/30 01:59:02;;;;;;;;;;;;;;;17.19;53.71;101007.59;5071552;28;1105;-48
2024/03/30 02:01:28;;;;;;;;;;;;;;;16.70;54.38;101001.38;5065930;28;1113;-45
2024/03/30 02:03:54;;;;;;;;;;;;;;;16.51;54.78;100991.97;5095674;28;1162;-44
2024/03/30 02:06:20;;;;;;;;;;;;;;;16.43;55.27;100990.59;5096160;28;1058;-48
2024/03/30 02:08:46;;;;;;;;;;;;;;;17.92;52.23;100992.81;5076384;28;1170;-47
2024/03/30 02:11:13;;;;;;;;;;;;;;;17.33;52.96;100991.41;5077895;28;1203;-48
2024/03/30 02:13:38;;;;;;;;;;;;;;;16.90;54.09;100994.34;5094754;28;1968;-50
2024/03/30 02:16:04;;;;;;;;;;;;;;;16.62;54.42;100998.34;5065601;28;1075;-46
2024/03/30 02:18:29;;;;;;;;;;;;;;;16.39;54.69;100990.28;5095504;28;1166;-49
2024/03/30 02:20:55;;;;;;;;;;;;;;;16.92;54.27;100992.16;5095841;28;1166;-50
2024/03/30 02:23:20;;;;;;;;;;;;;;;18.05;51.69;100991.44;5098703;28;1085;-49
2024/03/30 02:25:46;;;;;;;;;;;;;;;17.12;53.66;101001.56;5099921;28;1105;-49
2024/03/30 02:28:12;;;;;;;;;;;;;;;16.77;54.12;101001.16;5099790;28;1081;-47
2024/03/30 02:30:37;;;;;;;;;;;;;;;16.50;54.53;100998.59;5099547;28;1118;-48
2024/03/30 02:33:03;;;;;;;;;;;;;;;16.31;54.80;101006.44;5080977;28;1990;-47
2024/03/30 02:35:28;;;;;;;;;;;;;;;17.66;52.60;101009.31;5099443;28;1263;-45
2024/03/30 02:37:54;;;;;;;;;;;;;;;17.41;52.93;101005.44;5100165;28;1153;-45
2024/03/30 02:40:20;;;;;;;;;;;;;;;16.85;53.97;101008.06;5081327;28;1138;-48
2024/03/30 02:42:45;;;;;;;;;;;;;;;16.61;54.14;101003.03;5099306;28;1113;-49
2024/03/30 02:45:11;;;;;;;;;;;;;;;16.41;54.38;101006.47;5094473;28;1182;-48
2024/03/30 02:47:37;;;;;;;;;;;;;;;17.56;53.09;101006.56;5093203;28;1161;-49
2024/03/30 02:50:02;;;;;;;;;;;;;;;17.52;52.64;100997.22;5099298;28;1034;-49
2024/03/30 02:52:28;;;;;;;;;;;;;;;16.88;54.03;101004.75;5098751;28;1914;-47
2024/03/30 02:54:53;;;;;;;;;;;;;;;16.58;54.62;101006.31;5085989;28;1190;-49
2024/03/30 02:57:19;;;;;;;;;;;;;;;16.45;54.37;101006.78;5089516;28;1185;-48
2024/03/30 02:59:44;;;;;;;;;;;;;;;16.36;54.90;101007.28;5098958;28;1136;-48
2024/03/30 03:02:10;;;;;;;;;;;;;;;17.74;52.28;101007.91;5099213;28;1055;-47
2024/03/30 03:04:35;;;;;;;;;;;;;;;17.28;53.09;101004.06;5098702;28;1094;-46
2024/03/30 03:07:02;;;;;;;;;;;;;;;16.86;53.99;101009.72;5098962;28;1178;-48
2024/03/30 03:09:27;;;;;;;;;;;;;;;16.52;54.53;101010.09;5096908;28;1122;-47
2024/03/30 03:11:53;;;;;;;;;;;;;;;16.39;54.79;101012.22;5098411;28;1131;-46
2024/03/30 03:14:18;;;;;;;;;;;;;;;16.22;54.91;101017.09;5097911;28;1894;-46
2024/03/30 03:16:44;;;;;;;;;;;;;;;17.68;52.63;101020.84;5099185;28;1154;-48
2024/03/30 03:19:09;;;;;;;;;;;;;;;17.27;53.37;101021.63;5085169;28;1142;-47
2024/03/30 03:21:35;;;;;;;;;;;;;;;16.74;54.35;101012.66;5093629;28;1142;-48
2024/03/30 03:24:00;;;;;;;;;;;;;;;16.51;54.45;101019.44;5098569;28;1086;-46
2024/03/30 03:26:26;;;;;;;;;;;;;;;16.35;55.09;101016.59;5084865;28;1097;-48
2024/03/30 03:28:51;;;;;;;;;;;;;;;17.79;52.30;101022.53;5098978;28;1082;-47
2024/03/30 03:31:16;;;;;;;;;;;;;;;17.19;53.37;101026.84;5098081;28;1101;-48
2024/03/30 03:33:42;;;;;;;;;;;;;;;16.75;54.38;101036.31;5091665;28;1905;-47
2024/03/30 03:36:08;;;;;;;;;;;;;;;16.46;54.53;101027.66;5090887;28;1095;-50
2024/03/30 03:38:33;;;;;;;;;;;;;;;16.60;54.83;101035.13;5097690;28;1025;-48
2024/03/30 03:40:58;;;;;;;;;;;;;;;17.90;51.89;101034.31;5098225;28;1154;-49
2024/03/30 03:43:24;;;;;;;;;;;;;;;17.12;53.45;101029.03;5098142;28;1019;-48
2024/03/30 03:45:49;;;;;;;;;;;;;;;16.69;54.42;101032.72;5090760;28;1138;-49
2024/03/30 03:48:15;;;;;;;;;;;;;;;16.45;54.69;101042.47;5091207;28;1112;-44
2024/03/30 03:50:41;;;;;;;;;;;;;;;16.75;54.60;101045.34;5091971;28;1197;-43
2024/03/30 03:53:06;;;;;;;;;;;;;;;18.06;51.52;101043.44;5077175;28;1962;-51
2024/03/30 03:55:32;;;;;;;;;;;;;;;17.17;53.32;101040.03;5090625;28;1070;-50
2024/03/30 03:57:58;;;;;;;;;;;;;;;16.75;54.14;101036.31;5086253;28;1280;-47
2024/03/30 04:00:23;;;;;;;;;;;;;;;16.56;54.53;101044.16;5081699;28;1102;-44
2024/03/30 04:02:49;;;;;;;;;;;;;;;16.35;54.43;101046.78;5087788;28;1245;-47
2024/03/30 04:05:15;;;;;;;;;;;;;;;16.98;54.44;101051.50;5084219;28;2542;-46
2024/03/30 04:07:40;;;;;;;;;;;;;;;18.11;51.27;101040.66;5084283;28;1296;-48
2024/03/30 04:10:07;;;;;;;;;;;;;;;17.14;53.54;101046.06;5082955;28;1457;-49
2024/03/30 04:12:32;;;;;;;;;;;;;;;16.81;53.94;101046.19;5083860;28;1976;-43
2024/03/30 04:14:58;;;;;;;;;;;;;;;16.51;54.72;101057.84;5080494;28;1366;-49
2024/03/30 04:17:23;;;;;;;;;;;;;;;16.45;54.59;101053.44;5085208;28;1133;-46
2024/03/30 04:19:49;;;;;;;;;;;;;;;17.47;53.00;101064.00;5097224;28;1050;-46
2024/03/30 04:22:14;;;;;;;;;;;;;;;17.45;52.79;101067.03;5091869;28;1093;-45
2024/03/30 04:24:40;;;;;;;;;;;;;;;16.79;54.32;101070.38;5079360;28;1113;-49
2024/03/30 04:27:05;;;;;;;;;;;;;;;16.51;54.61;101075.16;5096884;28;1018;-43
2024/03/30 04:29:31;;;;;;;;;;;;;;;16.36;54.87;101083.31;5096824;28;990;-46
2024/03/30 04:31:56;;;;;;;;;;;;;;;17.40;53.31;101091.78;5096246;28;1022;-45
2024/03/30 04:34:22;;;;;;;;;;;;;;;17.58;52.37;101086.84;5096844;28;2365;-47
2024/03/30 04:36:47;;;;;;;;;;;;;;;16.94;53.89;101088.84;5097282;28;1170;-46
2024/03/30 04:39:13;;;;;;;;;;;;;;;16.55;54.82;101084.53;5097212;28;1042;-45
2024/03/30 04:41:38;;;;;;;;;;;;;;;16.41;54.49;101086.91;5096622;28;1070;-46
2024/03/30 04:44:04;;;;;;;;;;;;;;;16.60;54.80;101089.22;5096792;28;1045;-48
2024/03/30 04:46:30;;;;;;;;;;;;;;;17.94;51.99;101075.91;5096125;28;1074;-47
2024/03/30 04:48:55;;;;;;;;;;;;;;;17.13;53.58;101088.41;5089396;28;1019;-46
2024/03/30 04:51:20;;;;;;;;;;;;;;;16.69;54.53;101092.28;5077211;28;1046;-42
2024/03/30 04:53:46;;;;;;;;;;;;;;;16.50;54.61;101092.72;5094318;28;1991;-45
2024/03/30 04:56:11;;;;;;;;;;;;;;;16.40;54.45;101090.75;5096629;28;1106;-41
2024/03/30 04:58:37;;;;;;;;;;;;;;;16.80;54.86;101085.75;5092513;28;1164;-42
2024/03/30 05:01:06;;;;;;;;;;;;;;;17.85;51.96;101085.75;5095496;28;1210;-45
2024/03/30 05:03:31;;;;;;;;;;;;;;;16.97;53.85;101088.34;5096366;28;972;-48
2024/03/30 05:05:57;;;;;;;;;;;;;;;16.67;54.53;101089.78;5091489;28;983;-43
2024/03/30 05:08:23;;;;;;;;;;;;;;;16.74;55.59;101090.38;5096192;28;2582;-46
2024/03/30 05:10:50;;;;;;;;;;;;;;;17.19;54.21;101095.53;5095223;28;1224;-45
2024/03/30 05:13:17;;;;;;;;;;;;;;;16.50;53.73;101091.91;5096244;28;1905;-43
2024/03/30 05:15:42;;;;;;;;;;;;;;;17.66;53.87;101093.75;5096544;28;1007;-46
2024/03/30 05:18:08;;;;;;;;;;;;;;;16.88;53.84;101095.41;5088623;28;1161;-48
2024/03/30 05:20:49;;;;;;;;;;;;;;;16.58;53.48;101092.22;5085284;28;1206;-49
2024/03/30 05:23:19;;;;;;;;;;;;;;;17.30;53.74;101096.41;5089566;28;1090;-48
2024/03/30 05:25:44;;;;;;;;;;;;;;;17.75;53.71;101097.59;5075791;28;1076;-50
2024/03/30 05:28:10;;;;;;;;;;;;;;;18.95;51.39;101092.50;5089968;28;1058;-48
2024/03/30 05:30:36;;;;;;;;;;;;;;;17.66;53.34;101089.06;5092089;28;1194;-47
2024/03/30 05:33:02;;;;;;;;;;;;;;;17.20;52.29;101088.97;5084206;28;1984;-47
2024/03/30 05:35:28;;;;;;;;;;;;;;;16.96;50.98;101094.06;5086321;28;1266;-45
2024/03/30 05:37:53;;;;;;;;;;;;;;;16.88;50.07;101089.91;5096026;28;2607;-46
2024/03/30 05:40:19;;;;;;;;;;;;;;;18.00;52.64;101087.72;5084441;28;1238;-42
2024/03/30 05:42:44;;;;;;;;;;;;;;;17.13;52.35;101091.97;5084470;28;1230;-45
2024/03/30 05:45:10;;;;;;;;;;;;;;;17.31;53.08;101087.91;5082034;28;1222;-43
2024/03/30 05:47:36;;;;;;;;;;;;;;;17.65;53.03;101086.59;5085604;28;1245;-43
2024/03/30 05:50:01;;;;;;;;;;;;;;;17.01;52.19;101081.22;5083635;28;1301;-45
2024/03/30 05:52:27;;;;;;;;;;;;;;;16.85;50.81;101093.19;5086598;28;1978;-41
2024/03/30 05:54:52;;;;;;;;;;;;;;;16.64;50.08;101086.78;5083777;28;1281;-46
2024/03/30 05:57:18;;;;;;;;;;;;;;;17.31;51.47;101093.38;5088389;28;1194;-46
2024/03/30 05:59:43;;;;;;;;;;;;;;;16.97;51.72;101088.34;5086539;28;1147;-44
2024/03/30 06:02:09;;;;;;;;;;;;;;;16.82;50.33;101091.81;5090572;28;1189;-45
2024/03/30 06:04:34;;;;;;;;;;;;;;;17.59;51.18;101086.56;5092559;28;1170;-45
2024/03/30 06:07:00;;;;;;;;;;;;;;;17.23;51.18;101088.41;5091868;28;1257;-43
2024/03/30 06:09:25;;;;;;;;;;;;;;;16.83;50.38;101087.13;5093426;28;1915;-43
2024/03/30 06:11:51;;;;;;;;;;;;;;;17.88;51.12;101091.56;5078009;28;1012;-42
2024/03/30 06:14:16;;;;;;;;;;;;;;;17.00;51.32;101090.53;5083397;28;1964;-41
2024/03/30 06:16:42;;;;;;;;;;;;;;;16.74;50.32;101086.81;5089257;28;1039;-44
2024/03/30 06:19:08;;;;;;;;;;;;;;;16.64;49.27;101095.00;5091196;28;1163;-47
2024/03/30 06:21:34;;;;;;;;;;;;;;;17.44;50.67;101095.59;5088754;28;1351;-42
2024/03/30 06:24:00;;;;;;;;;;;;;;;16.91;50.36;101095.72;5097974;28;904;-43
2024/03/30 06:26:25;;;;;;;;;;;;;;;18.35;50.70;101092.38;5093609;28;1280;-45
2024/03/30 06:28:50;;;;;;;;;;;;;;;17.71;51.62;101091.81;5087869;28;1190;-45
2024/03/30 06:31:16;;;;;;;;;;;;;;;17.16;50.83;101094.16;5094548;28;1241;-46
2024/03/30 06:33:41;;;;;;;;;;;;;;;16.98;49.71;101095.47;5099388;28;1901;-44
2024/03/30 06:36:07;;;;;;;;;;;;;;;16.85;49.02;101101.44;5085336;28;1134;-45
2024/03/30 06:38:33;;;;;;;;;;;;;;;16.69;48.64;101093.13;5098996;28;2630;-45
2024/03/30 06:43:42;;;;;;;;;;;;;;;17.27;51.23;101101.34;5078629;28;1146;-44
2024/03/30 06:46:11;;;;;;;;;;;;;;;17.07;49.93;101104.84;5096857;28;1134;-43
2024/03/30 06:48:36;;;;;;;;;;;;;;;16.74;49.33;101104.09;5093883;28;964;-42
2024/03/30 06:51:02;;;;;;;;;;;;;;;17.55;50.45;101109.41;5094933;28;1225;-42
2024/03/30 06:53:28;;;;;;;;;;;;;;;17.16;50.39;101110.66;5099221;28;1973;-47
2024/03/30 06:55:54;;;;;;;;;;;;;;;17.15;50.62;101099.94;5097888;28;1122;-47
2024/03/30 06:58:19;;;;;;;;;;;;;;;17.93;50.75;101101.75;5097963;28;1107;-48
2024/03/30 07:00:46;;;;;;;;;;;;;;;17.14;51.03;101112.84;5088355;28;1062;-46
2024/03/30 07:03:12;;;;;;;;;;;;;;;16.89;49.76;101103.41;5096447;28;923;-41
2024/03/30 07:05:37;;;;;;;;;;;;;;;16.79;48.86;101100.59;5086797;28;978;-45
2024/03/30 07:08:03;;;;;;;;;;;;;;;17.75;50.28;101092.94;5096239;28;2538;-43
2024/03/30 07:10:28;;;;;;;;;;;;;;;17.03;50.45;101103.75;5096155;28;1143;-46
2024/03/30 07:12:57;;;;;;;;;;;;;;;16.87;49.65;101099.22;5095955;28;1905;-43
2024/03/30 07:15:22;;;;;;;;;;;;;;;16.69;48.68;101090.38;5088739;28;1050;-44
2024/03/30 07:17:48;;;;;;;;;;;;;;;16.69;48.33;101098.63;5093377;28;935;-43
2024/03/30 07:20:14;;;;;;;;;;;;;;;17.08;49.86;101101.03;5099407;28;916;-41
2024/03/30 07:22:39;;;;;;;;;;;;;;;17.42;49.86;101100.56;5097576;28;1110;-43
2024/03/30 07:25:05;;;;;;;;;;;;;;;18.70;49.81;101092.56;5088226;28;1007;-43
2024/03/30 07:27:30;;;;;;;;;;;;;;;17.61;51.33;101098.13;5093129;28;1319;-44
2024/03/30 07:29:56;;;;;;;;;;;;;;;17.12;50.68;101097.72;5083945;28;1075;-41
2024/03/30 07:32:21;;;;;;;;;;;;;;;17.05;49.56;101090.53;5083941;28;1914;-44
2024/03/30 07:34:47;;;;;;;;;;;;;;;16.91;48.82;101093.00;5092118;28;1038;-44
2024/03/30 07:37:13;;;;;;;;;;;;;;;16.85;48.61;101090.44;5091019;28;988;-43
2024/03/30 07:39:42;;;;;;;;;;;;;;;16.65;48.04;101089.25;5088948;28;2652;-46
2024/03/30 07:42:08;;;;;;;;;;;;;;;17.39;49.73;101092.88;5086078;28;1045;-43
2024/03/30 07:44:34;;;;;;;;;;;;;;;16.82;49.86;101085.50;5075797;28;1100;-39
2024/03/30 07:47:00;;;;;;;;;;;;;;;18.26;50.24;101089.34;5086425;28;983;-44
2024/03/30 07:49:25;;;;;;;;;;;;;;;17.63;51.10;101089.59;5093232;28;935;-41
2024/03/30 07:51:51;;;;;;;;;;;;;;;17.18;50.56;101091.13;5082849;28;1130;-44
2024/03/30 07:54:16;;;;;;;;;;;;;;;16.95;49.84;101090.50;5097040;28;1905;-45
2024/03/30 07:56:42;;;;;;;;;;;;;;;16.89;48.99;101083.34;5091311;28;1218;-42
2024/03/30 07:59:07;;;;;;;;;;;;;;;17.58;50.07;101078.59;5093464;28;1019;-41
2024/03/30 08:01:33;;;;;;;;;;;;;;;17.26;50.45;101082.38;5088720;28;1178;-40
2024/03/30 08:03:59;;;;;;;;;;;;;;;17.09;49.95;101083.41;5095668;28;951;-44
2024/03/30 08:06:25;;;;;;;;;;;;;;;17.98;50.23;101068.75;5091910;28;1300;-44
2024/03/30 08:08:50;;;;;;;;;;;;;;;17.34;50.54;101067.28;5094556;28;2680;-44
2024/03/30 08:11:16;;;;;;;;;;;;;;;17.13;49.72;101069.16;5083773;28;1127;-44
2024/03/30 08:13:42;;;;;;;;;;;;;;;16.90;49.09;101074.00;5084580;28;1930;-43
2024/03/30 08:16:07;;;;;;;;;;;;;;;16.79;48.61;101075.03;5083487;28;855;-44
2024/03/30 08:18:34;;;;;;;;;;;;;;;17.89;49.80;101073.09;5081451;28;922;-42
2024/03/30 08:21:03;;;;;;;;;;;;;;;17.28;50.02;101060.97;5085097;28;1178;-44
2024/03/30 08:23:29;;;;;;;;;;;;;;;17.03;49.53;101070.75;5092023;28;914;-45
2024/03/30 08:25:56;;;;;;;;;;;;;;;16.90;48.89;101063.84;5085883;28;1107;-44
2024/03/30 08:28:21;;;;;;;;;;;;;;;17.12;49.37;101060.06;5096714;28;1026;-46
2024/03/30 08:30:49;;;;;;;;;;;;;;;17.33;49.93;101058.19;5092219;28;1007;-47
2024/03/30 08:33:15;;;;;;;;;;;;;;;16.91;49.54;101051.78;5092119;28;1970;-41
2024/03/30 08:35:50;;;;;;;;;;;;;;;16.76;48.99;101060.75;5074435;28;976;-45
2024/03/30 08:38:16;;;;;;;;;;;;;;;17.00;48.80;101065.81;5095342;28;2465;-42
2024/03/30 08:40:41;;;;;;;;;;;;;;;17.24;49.82;101059.84;5091661;28;985;-41
2024/03/30 08:43:07;;;;;;;;;;;;;;;17.02;49.21;101063.63;5094747;28;1181;-45
2024/03/30 08:45:32;;;;;;;;;;;;;;;16.78;48.80;101060.47;5090706;28;979;-43
2024/03/30 08:47:58;;;;;;;;;;;;;;;17.75;49.22;101059.91;5094699;28;1105;-48
2024/03/30 08:50:23;;;;;;;;;;;;;;;17.06;49.73;101063.91;5090590;28;994;-42
2024/03/30 08:52:48;;;;;;;;;;;;;;;16.93;49.52;101068.81;5094101;28;1988;-42
2024/03/30 08:55:14;;;;;;;;;;;;;;;17.62;49.71;101066.75;5094971;28;1089;-41
2024/03/30 08:57:39;;;;;;;;;;;;;;;17.07;49.53;101058.16;5095306;28;1007;-44
2024/03/30 09:00:08;;;;;;;;;;;;;;;16.89;49.07;101059.44;5093041;28;980;-42
2024/03/30 09:02:36;;;;;;;;;;;;;;;16.76;48.49;101063.50;5086787;28;1083;-41
2024/03/30 09:05:01;;;;;;;;;;;;;;;16.70;47.89;101061.78;5095041;28;1054;-40
2024/03/30 09:07:27;;;;;;;;;;;;;;;16.57;47.59;101068.59;5083976;28;998;-43
2024/03/30 09:09:52;;;;;;;;;;;;;;;17.73;48.68;101081.34;5083242;28;2630;-42
2024/03/30 09:12:18;;;;;;;;;;;;;;;16.89;49.63;101073.19;5091136;28;1114;-45
2024/03/30 09:14:43;;;;;;;;;;;;;;;16.72;49.19;101075.28;5083974;28;1902;-47
2024/03/30 09:17:09;;;;;;;;;;;;;;;17.47;48.83;101079.69;5080023;28;1261;-43
2024/03/30 09:19:34;;;;;;;;;;;;;;;17.42;49.71;101070.31;5093853;28;1112;-41
2024/03/30 09:22:00;;;;;;;;;;;;;;;16.95;49.69;101068.53;5094659;28;1153;-44
2024/03/30 09:24:26;;;;;;;;;;;;;;;16.85;48.85;101071.22;5094123;28;914;-46
2024/03/30 09:26:51;;;;;;;;;;;;;;;17.73;49.29;101062.09;5094628;28;1122;-45
2024/03/30 09:29:16;;;;;;;;;;;;;;;17.03;49.90;101059.78;5094870;28;1249;-45
2024/03/30 09:31:42;;;;;;;;;;;;;;;16.88;49.21;101068.78;5094402;28;971;-48
2024/03/30 09:34:08;;;;;;;;;;;;;;;16.86;48.24;101067.38;5081524;28;1910;-44
2024/03/30 09:36:33;;;;;;;;;;;;;;;17.82;48.86;101067.88;5091380;28;1097;-41
2024/03/30 09:38:59;;;;;;;;;;;;;;;17.27;49.66;101059.28;5087596;28;2153;-43
2024/03/30 09:41:24;;;;;;;;;;;;;;;17.02;49.22;101069.09;5087995;28;984;-47
2024/03/30 09:43:50;;;;;;;;;;;;;;;16.85;48.76;101065.72;5076718;28;991;-46
2024/03/30 09:46:15;;;;;;;;;;;;;;;17.02;48.57;101068.28;5094612;28;1083;-44
2024/03/30 09:48:41;;;;;;;;;;;;;;;17.39;49.44;101061.78;5087261;28;1019;-47
2024/03/30 09:51:07;;;;;;;;;;;;;;;16.90;49.37;101069.34;5070171;28;999;-43
2024/03/30 09:53:33;;;;;;;;;;;;;;;17.81;49.41;101066.25;5094969;28;1909;-45
2024/03/30 09:55:59;;;;;;;;;;;;;;;17.15;49.98;101061.47;5094303;28;1042;-43
2024/03/30 09:58:24;;;;;;;;;;;;;;;16.92;49.38;101069.09;5081127;28;1038;-46
2024/03/30 10:00:52;;;;;;;;;;;;;;;16.91;48.60;101061.94;5094989;28;978;-43
2024/03/30 10:03:18;;;;;;;;;;;;;;;16.78;48.04;101068.72;5092636;28;1026;-43
2024/03/30 10:05:44;;;;;;;;;;;;;;;17.23;48.62;101070.00;5094892;28;990;-41
2024/03/30 10:08:10;;;;;;;;;;;;;;;17.22;49.17;101059.28;5077007;28;988;-43
2024/03/30 10:10:36;;;;;;;;;;;;;;;17.79;49.50;101066.53;5060632;28;1080;-42
2024/03/30 10:13:04;;;;;;;;;;;;;;;18.75;49.09;101070.53;5087413;28;1902;-42
2024/03/30 10:15:33;;;;;;;;;;;;;;;17.56;50.72;101069.81;5083796;28;1007;-43
2024/03/30 10:17:58;;;;;;;;;;;;;;;17.34;49.85;101064.53;5094655;28;1198;-45
2024/03/30 10:20:24;;;;;;;;;;;;;;;17.18;49.09;101063.66;5094731;28;1260;-42
2024/03/30 10:22:49;;;;;;;;;;;;;;;17.08;48.45;101056.22;5072042;28;1262;-44
2024/03/30 10:25:15;;;;;;;;;;;;;;;17.42;48.96;101056.56;5085950;28;1198;-43
2024/03/30 10:27:40;;;;;;;;;;;;;;;17.51;50.05;101053.28;5095110;28;1073;-45
2024/03/30 10:30:06;;;;;;;;;;;;;;;17.18;49.68;101045.28;5094128;28;1105;-43
2024/03/30 10:32:32;;;;;;;;;;;;;;;16.97;48.99;101049.88;5094754;28;1963;-42
2024/03/30 10:34:58;;;;;;;;;;;;;;;18.07;49.37;101045.06;5094894;28;1058;-44
2024/03/30 10:37:29;;;;;;;;;;;;;;;17.32;50.11;101034.59;5067483;28;1014;-44
2024/03/30 10:39:55;;;;;;;;;;;;;;;17.18;49.27;101022.44;5087313;28;1023;-48
2024/03/30 10:42:20;;;;;;;;;;;;;;;17.03;48.57;101026.81;5094936;28;1007;-44
2024/03/30 10:44:46;;;;;;;;;;;;;;;16.96;48.11;101028.16;5098278;28;1149;-45
2024/03/30 10:47:12;;;;;;;;;;;;;;;16.98;47.65;101037.78;5080266;28;1160;-43
2024/03/30 10:49:37;;;;;;;;;;;;;;;17.22;48.57;101029.03;5091110;28;1085;-43
2024/03/30 10:52:03;;;;;;;;;;;;;;;17.34;49.43;101021.38;5097436;28;1182;-44
2024/03/30 10:54:28;;;;;;;;;;;;;;;17.02;49.31;101025.16;5087042;28;1905;-45
2024/03/30 10:56:54;;;;;;;;;;;;;;;16.99;48.16;101019.38;5073713;28;1206;-43
2024/03/30 10:59:19;;;;;;;;;;;;;;;17.11;48.94;101011.72;5089502;28;1078;-40
2024/03/30 11:01:48;;;;;;;;;;;;;;;17.54;49.44;101004.06;5093100;28;1068;-46
2024/03/30 11:04:18;;;;;;;;;;;;;;;17.07;49.46;100994.94;5088628;28;1142;-42
2024/03/30 11:06:47;;;;;;;;;;;;;;;17.00;48.73;100994.38;5096288;28;1183;-39
2024/03/30 11:09:12;;;;;;;;;;;;;;;16.85;48.40;100997.88;5083324;28;1111;-43
2024/03/30 11:11:38;;;;;;;;;;;;;;;16.68;48.16;100992.59;5094654;28;1254;-42
2024/03/30 11:14:04;;;;;;;;;;;;;;;17.19;48.56;100993.88;5085220;28;1909;-43
2024/03/30 11:16:29;;;;;;;;;;;;;;;17.17;49.29;100993.34;5098156;28;1119;-43
2024/03/30 11:18:59;;;;;;;;;;;;;;;16.95;49.12;101001.78;5087451;28;1073;-39
2024/03/30 11:21:28;;;;;;;;;;;;;;;18.22;48.91;100991.91;5090947;28;1011;-45
2024/03/30 11:23:56;;;;;;;;;;;;;;;17.38;49.72;100992.25;5071294;28;1139;-45
2024/03/30 11:26:22;;;;;;;;;;;;;;;17.10;49.36;100994.41;5093850;28;1149;-43
2024/03/30 11:29:06;;;;;;;;;;;;;;;17.23;49.30;100981.25;5089626;28;990;-43
2024/03/30 11:31:40;;;;;;;;;;;;;;;17.62;49.79;100981.53;5083462;28;1173;-43
2024/03/30 11:34:35;;;;;;;;;;;;;;;17.20;49.43;100970.78;5097005;28;1901;-41
2024/03/30 11:37:01;;;;;;;;;;;;;;;16.96;48.75;100974.06;5013261;28;1089;-45
2024/03/30 11:39:28;;;;;;;;;;;;;;;17.14;48.59;100980.13;5076458;28;1118;-40
2024/03/30 11:41:57;;;;;;;;;;;;;;;17.65;49.44;100980.16;5088492;28;1284;-45
2024/03/30 11:44:23;;;;;;;;;;;;;;;17.05;49.67;100969.66;5090169;28;1033;-46
2024/03/30 11:46:49;;;;;;;;;;;;;;;17.04;48.66;100973.53;5087282;28;1198;-48
2024/03/30 11:49:14;;;;;;;;;;;;;;;16.88;48.19;100969.06;5078514;28;1198;-44
2024/03/30 11:51:40;;;;;;;;;;;;;;;16.83;47.80;100977.28;5078616;28;1058;-46
2024/03/30 11:54:21;;;;;;;;;;;;;;;16.74;47.59;100966.81;5082913;28;1992;-42
2024/03/30 11:57:10;;;;;;;;;;;;;;;17.68;48.34;100970.53;5097003;28;1026;-45
2024/03/30 11:59:36;;;;;;;;;;;;;;;17.06;48.83;100970.50;5096769;28;1045;-46
2024/03/30 12:02:02;;;;;;;;;;;;;;;17.38;48.75;100964.75;5090786;28;1037;-45
2024/03/30 12:04:29;;;;;;;;;;;;;;;17.38;49.62;100955.69;5086106;28;1098;-45
2024/03/30 12:06:56;;;;;;;;;;;;;;;17.04;49.25;100961.69;5090388;28;1095;-44
2024/03/30 12:09:21;;;;;;;;;;;;;;;16.94;48.42;100954.25;5081988;28;1053;-44
2024/03/30 12:11:52;;;;;;;;;;;;;;;17.64;48.79;100953.75;5070726;28;1012;-42
2024/03/30 12:14:18;;;;;;;;;;;;;;;17.21;49.46;100948.53;5091777;28;1906;-43
2024/03/30 12:16:43;;;;;;;;;;;;;;;17.00;48.66;100950.44;5096737;28;1042;-47
2024/03/30 12:19:09;;;;;;;;;;;;;;;17.64;49.22;100934.50;5096080;28;1098;-43
2024/03/30 12:21:34;;;;;;;;;;;;;;;17.30;49.42;100945.25;5090543;28;1242;-46
2024/03/30 12:24:00;;;;;;;;;;;;;;;17.03;48.91;100940.84;5069621;28;1086;-45
2024/03/30 12:26:25;;;;;;;;;;;;;;;17.30;49.04;100957.06;5066800;28;1500;-40
2024/03/30 12:28:51;;;;;;;;;;;;;;;17.64;49.48;100952.94;5083254;28;1079;-43
2024/03/30 12:31:16;;;;;;;;;;;;;;;17.22;49.32;100949.34;5085643;28;1212;-45
2024/03/30 12:33:42;;;;;;;;;;;;;;;17.01;48.63;100954.84;5086102;28;1910;-46
2024/03/30 12:36:07;;;;;;;;;;;;;;;16.98;48.00;100960.03;5078571;28;1218;-47
2024/03/30 12:38:34;;;;;;;;;;;;;;;17.15;48.45;100940.56;5068597;28;1277;-41
2024/03/30 12:41:00;;;;;;;;;;;;;;;17.36;49.39;100946.88;5072420;28;1250;-45
2024/03/30 12:43:25;;;;;;;;;;;;;;;17.05;48.85;100939.44;5083360;28;1174;-41
2024/03/30 12:45:51;;;;;;;;;;;;;;;17.98;48.79;100941.34;5091115;28;1153;-46